»·PEaware :: N626MT KSAN-KPOC

N626MT :: KSAN-KPOC

FLIGHT INFORMATION

Flight Status: Arrived
Operator: Privately registered:
United States
More flights under this callsign
Pilot: Dave M. (4986)
Aircraft: SOCATA TBM-900
(TBM9)
More flights by this aircraft type
Origin: KSAN San Diego Intl-Lindbergh
United States
Destination: KPOC Brackett
United States
More flights between these airports :: More routes between these airports
Route: MZB293R POM164R POM
File this flight plan on PilotEdge
Remarks: TEC route SANP24
Altitude:
(Current/Filed)
8,000ft
Speed:
(Current/Filed)
230kts
Departed: 14-Oct-19 09:16 PM
Arrived: 14-Oct-19 09:45 PM
Distance/Time
Traveled:
87nm/0:29
Distance/Time
To Go:
Arrived

Flight Plot

Page will automatically refresh every two minutes.

Flight plan parsing failed; only flown route is shown


Map Options




Map Legend


Flown Route
Filed Route
Departure Airport
Arrival Airport
Navaid (VOR, NDB)
Fix

Horizontal Profiles

Position Reports

Time Latitude Longitude Heading Altitude Ground
Speed
14-Oct-19 20:53 32.732389 -117.177887 194 21ft 0kts
14-Oct-19 20:54 32.732389 -117.177887 194 21ft 0kts
14-Oct-19 20:55 32.732389 -117.177887 194 21ft 0kts
14-Oct-19 20:56 32.732389 -117.177887 194 21ft 0kts
14-Oct-19 20:57 32.732389 -117.177887 194 21ft 0kts
14-Oct-19 20:58 32.732389 -117.177887 194 21ft 0kts
14-Oct-19 20:59 32.732389 -117.177887 194 21ft 0kts
14-Oct-19 21:00 32.732389 -117.177887 194 21ft 0kts
14-Oct-19 21:01 32.732389 -117.177887 194 21ft 0kts
14-Oct-19 21:02 32.732389 -117.177887 194 21ft 0kts
14-Oct-19 21:03 32.732389 -117.177887 194 21ft 0kts
14-Oct-19 21:04 32.732389 -117.177887 194 21ft 0kts
14-Oct-19 21:05 32.732389 -117.177887 194 21ft 0kts
14-Oct-19 21:06 32.732389 -117.177887 194 21ft 0kts
14-Oct-19 21:07 32.732389 -117.177887 194 21ft 0kts
14-Oct-19 21:08 32.732389 -117.177887 194 21ft 0kts
14-Oct-19 21:09 32.732389 -117.177887 194 21ft 0kts
14-Oct-19 21:10 32.732389 -117.177887 194 21ft 0kts
14-Oct-19 21:11 32.732389 -117.177887 194 21ft 0kts
14-Oct-19 21:12 32.731461 -117.176681 138 22ft 8kts
14-Oct-19 21:13 32.731114 -117.175740 120 25ft 0kts
14-Oct-19 21:14 32.730216 -117.175892 284 22ft 0kts
14-Oct-19 21:15 32.735691 -117.197673 290 264ft 142kts
14-Oct-19 21:16 32.756256 -117.243527 301 1826ft 167kts
14-Oct-19 21:17 32.779717 -117.291796 301 3596ft 166kts
14-Oct-19 21:18 32.802100 -117.338140 301 5380ft 161kts
14-Oct-19 21:19 32.824708 -117.384989 301 6881ft 166kts
14-Oct-19 21:20 32.865278 -117.416321 331 8003ft 206kts
14-Oct-19 21:21 32.921664 -117.453346 331 7983ft 246kts
14-Oct-19 21:22 32.969347 -117.512428 308 7980ft 254kts
14-Oct-19 21:23 33.012938 -117.579286 309 7980ft 256kts
14-Oct-19 21:24 33.057142 -117.646315 309 7981ft 257kts
14-Oct-19 21:25 33.101445 -117.714074 309 7989ft 258kts
14-Oct-19 21:26 33.152543 -117.769570 357 8001ft 252kts
14-Oct-19 21:27 33.223141 -117.773210 359 7991ft 254kts
14-Oct-19 21:28 33.294026 -117.775274 359 7991ft 254kts
14-Oct-19 21:30 33.364508 -117.776674 0 7990ft 254kts
14-Oct-19 21:31 33.435273 -117.777815 0 7990ft 254kts
14-Oct-19 21:32 33.506127 -117.778859 0 7990ft 254kts
14-Oct-19 21:33 33.577042 -117.779874 0 7990ft 254kts
14-Oct-19 21:34 33.647947 -117.780878 0 7793ft 257kts
14-Oct-19 21:35 33.720416 -117.781923 359 6795ft 260kts
14-Oct-19 21:36 33.792185 -117.783104 359 5982ft 247kts
14-Oct-19 21:37 33.852901 -117.784356 359 5974ft 199kts
14-Oct-19 21:38 33.904907 -117.776550 21 5987ft 186kts
14-Oct-19 21:39 33.950410 -117.754368 21 5874ft 165kts
14-Oct-19 21:40 33.989817 -117.734338 21 3990ft 157kts
14-Oct-19 21:41 34.031219 -117.727276 357 2648ft 145kts
14-Oct-19 21:42 34.068084 -117.727308 357 2126ft 105kts
14-Oct-19 21:43 34.089210 -117.743109 281 1744ft 103kts
14-Oct-19 21:44 34.090920 -117.773485 272 1031ft 78kts
14-Oct-19 21:45 34.090620 -117.782085 90 992ft 8kts
14-Oct-19 21:46 34.090511 -117.779500 93 996ft 6kts
14-Oct-19 21:47 34.089988 -117.777370 91 1000ft 5kts
14-Oct-19 21:48 34.089565 -117.777777 6 997ft 2kts
14-Oct-19 21:49 34.089640 -117.777773 0 998ft 0kts
14-Oct-19 21:49 34.089640 -117.777773 0 998ft 0kts
14-Oct-19 21:51 34.089640 -117.777773 0 998ft 0kts

Navigation Log

Ident Type
Flight plan parsing failed, navigation log unavailable